Time;durP1;ratioP1;P1;durP2;ratioP2;P2;SDS_P1;SDS_P2;PMS_P1;PMS_P2;Temp;Humidity;BMP_temperature;BMP_pressure;BME280_temperature;BME280_humidity;BME280_pressure;Samples;Min_cycle;Max_cycle;Signal;HPM_P1;HPM_P2
2024/02/11 00:02:03;;;;;;;81.70;23.92;;;6.10;99.90;;;;;;6339207;22;20006;-90
2024/02/11 00:04:29;;;;;;;83.88;26.20;;;6.10;99.90;;;;;;6338419;22;20010;-90
2024/02/11 00:06:55;;;;;;;47.55;19.80;;;6.10;99.90;;;;;;6364639;22;20133;-90
2024/02/11 00:09:21;;;;;;;58.85;23.67;;;6.00;99.90;;;;;;6364938;22;20003;-90
2024/02/11 00:11:47;;;;;;;65.78;23.85;;;6.10;99.90;;;;;;6364654;22;20063;-90
2024/02/11 00:14:14;;;;;;;55.78;21.17;;;6.00;99.90;;;;;;6337888;22;20034;-91
2024/02/11 00:16:39;;;;;;;45.78;19.02;;;6.00;99.90;;;;;;6364524;22;20398;-90
2024/02/11 00:19:06;;;;;;;46.30;18.25;;;6.00;99.90;;;;;;6338186;22;20013;-90
2024/02/11 00:21:32;;;;;;;45.80;18.40;;;6.00;99.90;;;;;;6365801;22;20007;-91
2024/02/11 00:23:59;;;;;;;56.22;22.80;;;6.00;99.90;;;;;;6337713;22;20006;-90
2024/02/11 00:26:25;;;;;;;61.42;23.75;;;6.00;99.90;;;;;;6364363;22;20006;-89
2024/02/11 00:28:51;;;;;;;44.00;18.02;;;6.00;99.90;;;;;;6337927;22;20076;-91
2024/02/11 00:31:16;;;;;;;39.78;17.00;;;6.00;99.90;;;;;;6365916;22;20426;-90
2024/02/11 00:33:43;;;;;;;49.85;20.30;;;6.00;99.90;;;;;;6366556;22;20090;-91
2024/02/11 00:36:09;;;;;;;39.28;17.20;;;6.00;99.90;;;;;;6366880;22;20101;-91
2024/02/11 00:38:35;;;;;;;37.38;17.05;;;6.00;99.90;;;;;;6364799;22;20480;-90
2024/02/11 00:41:01;;;;;;;47.88;18.67;;;6.10;99.90;;;;;;6365130;22;20011;-90
2024/02/11 00:43:27;;;;;;;45.45;17.90;;;6.10;99.90;;;;;;6337342;22;19999;-90
2024/02/11 00:45:52;;;;;;;47.00;18.33;;;6.00;99.90;;;;;;6337888;22;20021;-90
2024/02/11 00:48:18;;;;;;;47.70;19.13;;;6.10;99.90;;;;;;6364507;22;20003;-90
2024/02/11 00:50:44;;;;;;;77.50;27.77;;;6.10;99.90;;;;;;6364298;22;20017;-90
2024/02/11 00:53:10;;;;;;;70.97;27.35;;;6.20;99.90;;;;;;6364149;22;20031;-90
2024/02/11 00:55:35;;;;;;;73.50;25.73;;;6.20;99.90;;;;;;6364323;22;20010;-89
2024/02/11 00:58:04;;;;;;;54.70;21.38;;;6.20;99.90;;;;;;6339293;22;20003;-89
2024/02/11 01:00:31;;;;;;;58.00;21.92;;;6.10;99.90;;;;;;6337508;22;20450;-89
2024/02/11 01:02:57;;;;;;;60.97;22.92;;;6.20;99.90;;;;;;6337700;22;20003;-89
2024/02/11 01:05:22;;;;;;;68.07;23.40;;;6.20;99.90;;;;;;6338084;22;20014;-90
2024/02/11 01:07:50;;;;;;;62.88;24.13;;;6.20;99.90;;;;;;6364361;22;20026;-89
2024/02/11 01:10:17;;;;;;;64.78;23.48;;;6.20;99.90;;;;;;6337524;22;20014;-89
2024/02/11 01:12:44;;;;;;;58.45;22.02;;;6.20;99.90;;;;;;6337858;22;20120;-90
2024/02/11 01:15:12;;;;;;;49.15;19.38;;;6.10;99.90;;;;;;6337309;22;20010;-90
2024/02/11 01:17:41;;;;;;;49.42;19.33;;;6.10;99.90;;;;;;6335766;22;20015;-90
2024/02/11 01:20:16;;;;;;;48.92;19.77;;;6.10;99.90;;;;;;6337526;22;20082;-90
2024/02/11 01:22:48;;;;;;;47.22;18.60;;;6.10;99.90;;;;;;6337636;22;19999;-90
2024/02/11 01:25:19;;;;;;;49.67;18.02;;;6.10;99.90;;;;;;6337713;22;20456;-89
2024/02/11 01:27:46;;;;;;;39.67;15.10;;;6.10;99.90;;;;;;6338810;22;20018;-89
2024/02/11 01:30:13;;;;;;;39.45;16.27;;;6.10;99.90;;;;;;6337738;22;20003;-89
2024/02/11 01:32:38;;;;;;;40.05;16.33;;;6.10;99.90;;;;;;6337624;22;20010;-89
2024/02/11 01:35:07;;;;;;;41.20;15.88;;;6.10;99.90;;;;;;6363929;22;20007;-89
2024/02/11 01:37:33;;;;;;;37.80;16.08;;;6.10;99.90;;;;;;6337356;22;20383;-90
2024/02/11 01:39:59;;;;;;;39.45;15.73;;;6.00;99.90;;;;;;6338952;22;20069;-89
2024/02/11 01:42:24;;;;;;;41.03;15.80;;;6.00;99.90;;;;;;6337286;22;20113;-88
2024/02/11 01:44:50;;;;;;;32.55;14.38;;;6.00;99.90;;;;;;6364138;22;20363;-89
2024/02/11 01:47:16;;;;;;;34.38;14.65;;;6.00;99.90;;;;;;6363257;22;20418;-88
2024/02/11 01:49:42;;;;;;;30.95;14.02;;;6.00;99.90;;;;;;6337747;22;20225;-89
2024/02/11 01:52:09;;;;;;;31.70;13.02;;;6.00;99.90;;;;;;6363288;22;20002;-89
2024/02/11 01:54:37;;;;;;;35.00;14.65;;;5.90;99.90;;;;;;6338393;22;19998;-91
2024/02/11 01:57:03;;;;;;;35.30;14.82;;;5.90;99.90;;;;;;6337172;22;20141;-88
2024/02/11 01:59:32;;;;;;;32.72;14.05;;;5.90;99.90;;;;;;6337521;22;20056;-89
2024/02/11 02:01:58;;;;;;;31.25;14.13;;;5.90;99.90;;;;;;6311119;22;20085;-88
2024/02/11 02:04:25;;;;;;;35.30;14.05;;;5.90;99.90;;;;;;6363403;22;20003;-90
2024/02/11 02:06:52;;;;;;;34.45;12.85;;;5.90;99.90;;;;;;6337223;22;19999;-90
2024/02/11 02:09:18;;;;;;;27.55;12.32;;;5.90;99.90;;;;;;6337328;22;20010;-89
2024/02/11 02:11:44;;;;;;;28.40;12.88;;;5.90;99.90;;;;;;6363946;22;20003;-90
2024/02/11 02:14:10;;;;;;;33.42;13.65;;;6.00;99.90;;;;;;6338307;22;20002;-90
2024/02/11 02:16:36;;;;;;;30.10;13.75;;;5.90;99.90;;;;;;6369110;22;20067;-90
2024/02/11 02:19:03;;;;;;;30.30;13.35;;;6.00;99.90;;;;;;6341781;22;20009;-89
2024/02/11 02:21:29;;;;;;;41.67;15.82;;;6.00;99.90;;;;;;6341572;22;20010;-90
2024/02/11 02:23:54;;;;;;;46.08;17.65;;;6.00;99.90;;;;;;6341858;22;20075;-89
2024/02/11 02:26:20;;;;;;;29.27;13.10;;;6.00;99.90;;;;;;6349985;22;20044;-90
2024/02/11 02:28:46;;;;;;;34.67;14.73;;;6.00;99.90;;;;;;6348129;22;20029;-91
2024/02/11 02:31:11;;;;;;;25.67;11.90;;;6.00;99.90;;;;;;6343677;22;20090;-89
2024/02/11 02:33:37;;;;;;;28.67;12.40;;;5.90;99.90;;;;;;6346394;22;19999;-89
2024/02/11 02:36:04;;;;;;;28.05;12.00;;;5.90;99.90;;;;;;6342024;22;20111;-89
2024/02/11 02:38:30;;;;;;;23.88;10.63;;;5.80;99.90;;;;;;6370527;22;20003;-90
2024/02/11 02:40:55;;;;;;;23.60;11.10;;;5.80;99.90;;;;;;6341877;22;20015;-89
2024/02/11 02:43:21;;;;;;;24.20;11.63;;;5.80;99.90;;;;;;6370010;22;20016;-89
2024/02/11 02:45:47;;;;;;;26.35;12.02;;;5.80;99.90;;;;;;6341673;22;20009;-89
2024/02/11 02:48:14;;;;;;;23.60;11.45;;;5.80;99.90;;;;;;6342426;22;20070;-89
2024/02/11 02:50:43;;;;;;;21.92;11.23;;;5.80;99.90;;;;;;6342835;22;20094;-89
2024/02/11 02:53:10;;;;;;;24.38;10.93;;;5.70;99.90;;;;;;6343154;22;20006;-89
2024/02/11 02:55:39;;;;;;;24.60;10.52;;;5.70;99.90;;;;;;6370785;22;20038;-88
2024/02/11 02:58:11;;;;;;;21.85;10.10;;;5.70;99.90;;;;;;6343749;22;20047;-88
2024/02/11 03:00:37;;;;;;;21.27;10.02;;;5.70;99.90;;;;;;6343903;22;20006;-87
2024/02/11 03:03:03;;;;;;;24.10;10.93;;;5.70;99.90;;;;;;6353495;22;20063;-87
2024/02/11 03:05:29;;;;;;;21.95;10.00;;;5.60;99.90;;;;;;6353875;22;20002;-88
2024/02/11 03:07:56;;;;;;;20.80;10.05;;;5.60;99.90;;;;;;6348813;22;20009;-88
2024/02/11 03:10:22;;;;;;;20.40;9.90;;;5.60;99.90;;;;;;6345742;22;20050;-88
2024/02/11 03:12:48;;;;;;;24.90;10.52;;;5.60;99.90;;;;;;6345787;22;20002;-87
2024/02/11 03:15:15;;;;;;;22.55;11.10;;;5.60;99.90;;;;;;6345064;22;20017;-88
2024/02/11 03:17:41;;;;;;;20.85;10.07;;;5.60;99.90;;;;;;6344821;22;20438;-88
2024/02/11 03:20:08;;;;;;;20.35;10.70;;;5.60;99.90;;;;;;6344645;22;20006;-88
2024/02/11 03:22:34;;;;;;;21.30;10.40;;;5.50;99.90;;;;;;6372546;22;20006;-88
2024/02/11 03:24:59;;;;;;;18.90;8.93;;;5.50;99.90;;;;;;6344939;22;20002;-88
2024/02/11 03:27:25;;;;;;;17.55;9.27;;;5.50;99.90;;;;;;6344827;22;20002;-88
2024/02/11 03:29:51;;;;;;;19.50;9.55;;;5.50;99.90;;;;;;6344425;22;20329;-88
2024/02/11 03:32:16;;;;;;;17.77;9.13;;;5.50;99.90;;;;;;6344928;22;20429;-87
2024/02/11 03:34:42;;;;;;;18.13;8.70;;;5.50;99.90;;;;;;6344713;22;20085;-89
2024/02/11 03:37:08;;;;;;;17.05;8.32;;;5.50;99.90;;;;;;6343946;22;20002;-89
2024/02/11 03:39:35;;;;;;;17.08;8.32;;;5.50;99.90;;;;;;6343898;22;20431;-88
2024/02/11 03:42:01;;;;;;;17.27;8.75;;;5.40;99.90;;;;;;6344103;22;20066;-88
2024/02/11 03:44:27;;;;;;;14.77;7.93;;;5.40;99.90;;;;;;6343706;22;20039;-88
2024/02/11 03:46:53;;;;;;;15.82;8.60;;;5.40;99.90;;;;;;6343345;22;20350;-89
2024/02/11 03:49:18;;;;;;;16.15;8.55;;;5.40;99.90;;;;;;6343293;22;20063;-90
2024/02/11 03:51:46;;;;;;;20.48;8.18;;;5.40;99.90;;;;;;6343747;22;20021;-89
2024/02/11 03:54:12;;;;;;;17.52;8.43;;;5.40;99.90;;;;;;6343505;22;19998;-88
2024/02/11 03:56:41;;;;;;;17.33;9.02;;;5.40;99.90;;;;;;6371154;22;20157;-90
2024/02/11 03:59:10;;;;;;;17.98;8.60;;;5.40;99.90;;;;;;6343179;22;20002;-88
2024/02/11 04:01:36;;;;;;;16.27;7.97;;;5.40;99.90;;;;;;6343436;22;20048;-89
2024/02/11 04:04:03;;;;;;;14.43;7.90;;;5.30;99.90;;;;;;6343271;22;20002;-88
2024/02/11 04:06:30;;;;;;;14.57;6.97;;;5.30;99.90;;;;;;6345613;22;19999;-89
2024/02/11 04:08:56;;;;;;;15.35;7.68;;;5.40;99.90;;;;;;6347131;22;20009;-89
2024/02/11 04:11:26;;;;;;;14.15;6.88;;;5.30;99.90;;;;;;6345722;22;19998;-88
2024/02/11 04:13:54;;;;;;;14.65;8.27;;;5.30;99.90;;;;;;6348178;22;20002;-89
2024/02/11 04:16:22;;;;;;;12.48;6.97;;;5.30;99.90;;;;;;6349067;22;20018;-89
2024/02/11 04:18:49;;;;;;;12.85;6.95;;;5.30;99.90;;;;;;6348514;22;20052;-89
2024/02/11 04:21:15;;;;;;;12.20;6.07;;;5.30;99.90;;;;;;6348469;22;20074;-88
2024/02/11 04:23:43;;;;;;;13.20;7.15;;;5.30;99.90;;;;;;6347753;22;20006;-88
2024/02/11 04:26:10;;;;;;;13.75;7.03;;;5.30;99.90;;;;;;6343740;22;20002;-89
2024/02/11 04:28:36;;;;;;;29.17;7.97;;;5.20;99.90;;;;;;6375364;22;20018;-89
2024/02/11 04:31:10;;;;;;;22.70;7.45;;;5.20;99.90;;;;;;6347235;22;20002;-89
2024/02/11 04:33:40;;;;;;;13.48;6.88;;;5.20;99.90;;;;;;6346020;22;20009;-88
2024/02/11 04:36:12;;;;;;;13.90;6.88;;;5.20;99.90;;;;;;6344194;22;20006;-89
2024/02/11 04:38:38;;;;;;;22.70;7.97;;;5.20;99.90;;;;;;6372064;22;20003;-89
2024/02/11 04:41:05;;;;;;;13.80;7.53;;;5.20;99.90;;;;;;6344410;22;19998;-89
2024/02/11 04:43:34;;;;;;;15.50;7.60;;;5.20;99.90;;;;;;6344750;22;20335;-89
2024/02/11 04:46:02;;;;;;;19.42;8.88;;;5.10;99.90;;;;;;6344083;22;20440;-89
2024/02/11 04:48:31;;;;;;;15.23;7.40;;;5.10;99.90;;;;;;6344207;22;20006;-89
2024/02/11 04:50:58;;;;;;;15.13;7.40;;;5.10;99.90;;;;;;6343523;22;19999;-89
2024/02/11 04:53:25;;;;;;;12.07;7.20;;;5.10;99.90;;;;;;6344077;22;20010;-89
2024/02/11 04:55:51;;;;;;;14.20;7.07;;;5.10;99.90;;;;;;6344320;22;20040;-89
2024/02/11 04:58:19;;;;;;;17.50;7.40;;;5.10;99.90;;;;;;6344736;22;19998;-90
2024/02/11 05:00:51;;;;;;;15.43;8.10;;;5.00;99.90;;;;;;6343775;22;20010;-88
2024/02/11 05:03:20;;;;;;;14.85;7.47;;;5.00;99.90;;;;;;6343345;22;20051;-89
2024/02/11 05:05:47;;;;;;;16.35;7.75;;;5.00;99.90;;;;;;6343609;22;20008;-90
2024/02/11 05:08:16;;;;;;;12.23;6.57;;;5.00;99.90;;;;;;6343092;22;20018;-89
2024/02/11 05:10:43;;;;;;;15.50;8.20;;;5.00;99.90;;;;;;6343255;22;20002;-88
2024/02/11 05:13:11;;;;;;;12.73;6.90;;;5.00;99.90;;;;;;6343197;22;20006;-89
2024/02/11 05:15:49;;;;;;;18.17;8.77;;;5.00;99.90;;;;;;6342915;22;20021;-89
2024/02/11 05:18:15;;;;;;;126.10;10.48;;;5.00;99.90;;;;;;6342978;22;19999;-88
2024/02/11 05:20:41;;;;;;;13.95;6.95;;;5.00;99.90;;;;;;6343126;22;20006;-89
2024/02/11 05:23:11;;;;;;;161.27;13.38;;;4.90;99.90;;;;;;6343272;22;19998;-89
2024/02/11 05:25:39;;;;;;;16.60;8.13;;;4.90;99.90;;;;;;6343147;22;20003;-89
2024/02/11 05:28:09;;;;;;;17.40;8.63;;;4.90;99.90;;;;;;6342986;22;20012;-89
2024/02/11 05:30:38;;;;;;;14.85;6.90;;;4.90;99.90;;;;;;6342771;22;20014;-88
2024/02/11 05:33:06;;;;;;;28.10;10.02;;;4.80;99.90;;;;;;6342684;22;20382;-90
2024/02/11 05:35:37;;;;;;;48.65;10.52;;;4.80;99.90;;;;;;6342129;22;20036;-89
2024/02/11 05:38:03;;;;;;;;;;;4.80;99.90;;;;;;6343821;22;20006;-89
2024/02/11 05:40:33;;;;;;;14.30;6.93;;;4.80;99.90;;;;;;6370920;22;19903;-89
2024/02/11 05:42:59;;;;;;;34.42;9.88;;;4.80;99.90;;;;;;6343063;22;20017;-89
2024/02/11 05:45:26;;;;;;;20.05;8.75;;;4.80;99.90;;;;;;6342972;22;20003;-89
2024/02/11 05:47:53;;;;;;;21.48;10.32;;;4.70;99.90;;;;;;6342763;22;20013;-89
2024/02/11 05:50:20;;;;;;;19.33;8.65;;;4.70;99.90;;;;;;6342802;22;20393;-89
2024/02/11 05:52:46;;;;;;;21.83;9.23;;;4.70;99.90;;;;;;6342445;22;20002;-89
2024/02/11 05:55:16;;;;;;;17.63;8.43;;;4.70;99.90;;;;;;6342522;22;20006;-89
2024/02/11 05:57:43;;;;;;;18.00;8.13;;;4.70;99.90;;;;;;6371099;22;20002;-89
2024/02/11 06:00:14;;;;;;;12.05;6.75;;;4.70;99.90;;;;;;6343267;22;20233;-88
2024/02/11 06:02:44;;;;;;;16.33;7.70;;;4.70;99.90;;;;;;6342120;22;20006;-89
2024/02/11 06:05:13;;;;;;;18.55;8.68;;;4.70;99.90;;;;;;6343229;22;20006;-90
2024/02/11 06:07:46;;;;;;;14.77;7.00;;;4.70;99.90;;;;;;6371390;22;20350;-89
2024/02/11 06:10:15;;;;;;;14.18;7.30;;;4.70;99.90;;;;;;6343377;22;20002;-90
2024/02/11 06:12:45;;;;;;;17.45;8.70;;;4.70;99.90;;;;;;6342295;22;20006;-89
2024/02/11 06:15:20;;;;;;;17.85;7.68;;;4.60;99.90;;;;;;6342814;22;20093;-89
2024/02/11 06:17:48;;;;;;;15.68;7.05;;;4.60;99.90;;;;;;6342848;22;20010;-89
2024/02/11 06:20:14;;;;;;;14.80;7.07;;;4.60;99.90;;;;;;6342564;22;20010;-90
2024/02/11 06:22:42;;;;;;;16.77;7.57;;;4.60;99.90;;;;;;6342334;22;20310;-90
2024/02/11 06:25:08;;;;;;;13.57;6.70;;;4.50;99.90;;;;;;6341848;22;20400;-90
2024/02/11 06:27:34;;;;;;;18.13;9.10;;;4.50;99.90;;;;;;6342257;22;20006;-89
2024/02/11 06:30:01;;;;;;;13.38;6.72;;;4.50;99.90;;;;;;6342578;22;20002;-89
2024/02/11 06:32:27;;;;;;;21.00;9.63;;;4.50;99.90;;;;;;6342257;22;20003;-89
2024/02/11 06:34:52;;;;;;;18.60;8.85;;;4.50;99.90;;;;;;6342695;22;20103;-89
2024/02/11 06:37:21;;;;;;;13.30;6.57;;;4.50;99.90;;;;;;6342424;22;20006;-89
2024/02/11 06:39:47;;;;;;;25.90;9.23;;;4.50;99.90;;;;;;6342722;22;20033;-89
2024/02/11 06:42:14;;;;;;;45.05;10.45;;;4.40;99.90;;;;;;6343748;22;20017;-90
2024/02/11 06:44:43;;;;;;;36.45;9.00;;;4.40;99.90;;;;;;6345372;22;20062;-89
2024/02/11 06:47:09;;;;;;;29.58;8.70;;;4.30;99.90;;;;;;6344240;22;20089;-89
2024/02/11 06:49:37;;;;;;;23.38;8.15;;;4.30;99.90;;;;;;6345829;22;20002;-89
2024/02/11 06:52:04;;;;;;;17.67;7.80;;;4.30;99.90;;;;;;6347132;22;20032;-89
2024/02/11 06:54:30;;;;;;;37.63;9.10;;;4.30;99.90;;;;;;6346772;22;20009;-88
2024/02/11 06:56:56;;;;;;;45.30;7.88;;;4.30;99.90;;;;;;6345483;22;20015;-88
2024/02/11 06:59:22;;;;;;;66.15;8.95;;;4.30;99.90;;;;;;6344628;22;20029;-89
2024/02/11 07:01:48;;;;;;;69.13;9.57;;;4.30;99.90;;;;;;6343878;22;20003;-91
2024/02/11 07:04:14;;;;;;;27.48;7.93;;;4.30;99.90;;;;;;6344309;22;20398;-89
2024/02/11 07:06:53;;;;;;;46.72;9.15;;;4.30;99.90;;;;;;6344443;22;20478;-90
2024/02/11 07:09:22;;;;;;;135.55;13.57;;;4.20;99.90;;;;;;6345096;22;20344;-90
2024/02/11 07:11:49;;;;;;;19.83;8.90;;;4.20;99.90;;;;;;6372159;22;20055;-89
2024/02/11 07:14:15;;;;;;;22.90;8.80;;;4.20;99.90;;;;;;6344441;22;20014;-88
2024/02/11 07:16:43;;;;;;;17.50;8.15;;;4.20;99.90;;;;;;6344027;22;20014;-88
2024/02/11 07:19:10;;;;;;;16.15;6.85;;;4.20;99.90;;;;;;6344345;22;20017;-89
2024/02/11 07:21:38;;;;;;;14.30;7.00;;;4.20;99.90;;;;;;6343861;22;20466;-89
2024/02/11 07:24:06;;;;;;;14.45;7.07;;;4.10;99.90;;;;;;6343960;22;20030;-89
2024/02/11 07:26:31;;;;;;;22.92;7.78;;;4.10;99.90;;;;;;6344625;22;20331;-89
2024/02/11 07:28:57;;;;;;;24.73;7.78;;;4.10;99.90;;;;;;6344569;22;20002;-90
2024/02/11 07:31:23;;;;;;;28.38;7.95;;;4.10;99.90;;;;;;6344494;22;20224;-89
2024/02/11 07:33:50;;;;;;;14.43;7.30;;;4.10;99.90;;;;;;6344393;22;19995;-88
2024/02/11 07:36:17;;;;;;;14.43;6.90;;;4.10;99.90;;;;;;6344365;22;20612;-89
2024/02/11 07:38:43;;;;;;;16.58;7.40;;;4.10;99.90;;;;;;6344238;22;20487;-89
2024/02/11 07:41:10;;;;;;;38.72;10.52;;;4.10;99.90;;;;;;6344212;22;20002;-89
2024/02/11 07:43:37;;;;;;;21.35;8.13;;;4.10;99.90;;;;;;6343735;22;20363;-89
2024/02/11 07:46:03;;;;;;;44.40;10.75;;;4.20;99.90;;;;;;6343245;22;20022;-90
2024/02/11 07:48:30;;;;;;;37.20;9.85;;;4.10;99.90;;;;;;6344036;22;20002;-89
2024/02/11 07:50:56;;;;;;;77.20;11.95;;;4.20;99.90;;;;;;6372482;22;20006;-89
2024/02/11 07:53:22;;;;;;;39.90;10.25;;;4.20;99.90;;;;;;6344260;22;19998;-89
2024/02/11 07:55:48;;;;;;;22.55;9.57;;;4.20;99.90;;;;;;6344102;22;20047;-88
2024/02/11 07:58:13;;;;;;;24.00;9.90;;;4.20;99.90;;;;;;6343949;22;20030;-89
2024/02/11 08:00:40;;;;;;;16.23;7.68;;;4.20;99.90;;;;;;6342931;22;20009;-89
2024/02/11 08:03:11;;;;;;;18.50;8.75;;;4.20;99.90;;;;;;6343643;22;20013;-90
2024/02/11 08:05:36;;;;;;;;;;;4.20;99.90;;;;;;6343672;22;20002;-88
2024/02/11 08:08:02;;;;;;;20.88;7.85;;;4.30;99.90;;;;;;6341876;22;19959;-89
2024/02/11 08:10:28;;;;;;;30.52;10.02;;;4.30;99.90;;;;;;6343292;22;20054;-89
2024/02/11 08:12:54;;;;;;;21.15;8.88;;;4.30;99.90;;;;;;6342558;22;20007;-89
2024/02/11 08:15:20;;;;;;;22.70;9.70;;;4.30;99.90;;;;;;6342817;22;20528;-88
2024/02/11 08:17:46;;;;;;;28.73;10.73;;;4.30;99.90;;;;;;6342785;22;20062;-90
2024/02/11 08:20:19;;;;;;;143.43;18.45;;;4.30;99.90;;;;;;6343559;22;20006;-89
2024/02/11 08:22:45;;;;;;;63.28;14.50;;;4.30;99.90;;;;;;6343142;22;20007;-90
2024/02/11 08:25:12;;;;;;;191.32;17.45;;;4.30;99.90;;;;;;6342976;22;20006;-90
2024/02/11 08:27:39;;;;;;;113.72;15.18;;;4.30;99.90;;;;;;6370462;22;20004;-89
2024/02/11 08:30:09;;;;;;;39.70;9.32;;;4.30;99.90;;;;;;6342775;22;20030;-90
2024/02/11 08:32:35;;;;;;;;;;;4.20;99.90;;;;;;6343522;22;20463;-89
2024/02/11 08:35:03;;;;;;;30.98;11.20;;;4.30;99.90;;;;;;6342075;22;19912;-89
2024/02/11 08:37:28;;;;;;;59.83;13.32;;;4.30;99.90;;;;;;6343112;22;20003;-89
2024/02/11 08:39:54;;;;;;;26.63;12.05;;;4.30;99.90;;;;;;6343588;22;20017;-89
2024/02/11 08:42:20;;;;;;;30.10;11.80;;;4.30;99.90;;;;;;6370603;22;20009;-88
2024/02/11 08:44:46;;;;;;;31.02;13.00;;;4.30;99.90;;;;;;6342618;22;20078;-88
2024/02/11 08:47:12;;;;;;;30.27;12.63;;;4.30;99.90;;;;;;6342971;22;20002;-89
2024/02/11 08:49:41;;;;;;;28.73;12.15;;;4.40;99.90;;;;;;6342852;22;20055;-89
2024/02/11 08:52:07;;;;;;;27.45;10.68;;;4.40;99.90;;;;;;6342729;22;20423;-89
2024/02/11 08:54:36;;;;;;;35.90;13.80;;;4.40;99.90;;;;;;6342571;22;20090;-88
2024/02/11 08:57:02;;;;;;;34.25;13.52;;;4.50;99.90;;;;;;6317056;22;20023;-88
2024/02/11 08:59:31;;;;;;;47.45;15.95;;;4.60;99.90;;;;;;6342929;22;20214;-89
2024/02/11 09:01:59;;;;;;;63.10;20.90;;;4.60;99.90;;;;;;6342615;22;20006;-88
2024/02/11 09:04:27;;;;;;;58.40;18.95;;;4.70;99.90;;;;;;6342766;22;20006;-90
2024/02/11 09:06:57;;;;;;;65.70;20.75;;;4.80;99.90;;;;;;6342884;22;20529;-89
2024/02/11 09:09:26;;;;;;;75.85;20.73;;;4.80;99.90;;;;;;6342595;22;20034;-88
2024/02/11 09:11:56;;;;;;;73.00;21.58;;;4.90;99.90;;;;;;6342049;22;20003;-90
2024/02/11 09:14:24;;;;;;;77.40;20.65;;;5.00;99.90;;;;;;6370353;22;20003;-88
2024/02/11 09:16:50;;;;;;;90.43;22.67;;;5.00;99.90;;;;;;6342237;22;20021;-89
2024/02/11 09:19:16;;;;;;;68.05;19.98;;;5.10;99.90;;;;;;6342855;22;20003;-90
2024/02/11 09:21:42;;;;;;;84.82;22.48;;;5.10;99.90;;;;;;6370509;22;20269;-89
2024/02/11 09:24:10;;;;;;;80.20;21.15;;;5.20;99.90;;;;;;6342610;22;20043;-88
2024/02/11 09:26:36;;;;;;;82.70;23.30;;;5.20;99.90;;;;;;6342429;22;20006;-89
2024/02/11 09:29:01;;;;;;;89.90;24.85;;;5.30;99.90;;;;;;6342380;22;20086;-90
2024/02/11 09:31:27;;;;;;;76.80;21.33;;;5.30;99.90;;;;;;6341365;22;20002;-89
2024/02/11 09:33:54;;;;;;;54.63;17.63;;;5.40;99.90;;;;;;6370578;22;20006;-89
2024/02/11 09:36:20;;;;;;;57.55;18.52;;;5.40;99.90;;;;;;6342551;22;20014;-89
2024/02/11 09:38:47;;;;;;;45.25;15.60;;;5.40;99.90;;;;;;6342457;22;19999;-90
2024/02/11 09:41:13;;;;;;;41.30;14.07;;;5.50;99.90;;;;;;6342283;22;20011;-90
2024/02/11 09:43:40;;;;;;;35.97;13.18;;;5.50;99.90;;;;;;6342556;22;20006;-90
2024/02/11 09:46:07;;;;;;;37.85;13.63;;;5.60;99.90;;;;;;6342253;22;19999;-90
2024/02/11 09:48:35;;;;;;;37.35;14.30;;;5.70;99.90;;;;;;6342086;22;20085;-90
2024/02/11 09:51:02;;;;;;;43.42;15.02;;;5.70;99.90;;;;;;6342004;22;20055;-89
2024/02/11 09:53:28;;;;;;;40.70;15.88;;;5.80;99.90;;;;;;6342339;22;20013;-89
2024/02/11 09:55:54;;;;;;;37.83;14.77;;;5.80;99.90;;;;;;6342040;22;20026;-89
2024/02/11 09:58:23;;;;;;;44.90;15.93;;;5.90;99.90;;;;;;6342122;22;20006;-90
2024/02/11 10:00:50;;;;;;;44.70;15.30;;;5.90;99.90;;;;;;6342503;22;20027;-89
2024/02/11 10:03:18;;;;;;;45.90;15.23;;;5.90;99.90;;;;;;6342595;22;20389;-89
2024/02/11 10:05:48;;;;;;;53.13;18.63;;;6.00;99.90;;;;;;6342466;22;20055;-89
2024/02/11 10:08:15;;;;;;;52.10;15.60;;;6.00;99.90;;;;;;6341985;22;20002;-89
2024/02/11 10:10:43;;;;;;;54.78;17.50;;;6.10;99.90;;;;;;6341590;22;20011;-89
2024/02/11 10:13:19;;;;;;;50.58;16.52;;;6.10;99.90;;;;;;6342225;22;20006;-90
2024/02/11 10:15:51;;;;;;;45.13;17.17;;;6.10;99.90;;;;;;6342512;22;20018;-89
2024/02/11 10:18:17;;;;;;;49.10;16.38;;;6.10;99.90;;;;;;6373747;22;19998;-90
2024/02/11 10:20:47;;;;;;;45.00;15.63;;;6.10;99.90;;;;;;6345861;22;20147;-89
2024/02/11 10:23:17;;;;;;;44.92;17.50;;;6.10;99.90;;;;;;6345112;22;19998;-89
2024/02/11 10:25:45;;;;;;;45.17;16.27;;;6.10;99.90;;;;;;6345459;22;20013;-89
2024/02/11 10:28:11;;;;;;;48.08;16.90;;;6.10;99.90;;;;;;6345000;22;20026;-89
2024/02/11 10:30:40;;;;;;;49.83;19.08;;;6.10;99.90;;;;;;6345083;22;20038;-90
2024/02/11 10:33:07;;;;;;;45.10;16.00;;;6.20;99.90;;;;;;6346387;22;20002;-90
2024/02/11 10:35:33;;;;;;;44.33;15.90;;;6.20;99.90;;;;;;6373995;22;20010;-90
2024/02/11 10:38:08;;;;;;;45.45;16.63;;;6.20;99.90;;;;;;6349309;22;20006;-91
2024/02/11 10:40:38;;;;;;;45.10;16.77;;;6.20;99.90;;;;;;6351751;22;20003;-89
2024/02/11 10:43:09;;;;;;;48.53;17.55;;;6.20;99.90;;;;;;6377489;22;20032;-89
2024/02/11 10:45:35;;;;;;;47.28;16.92;;;6.10;99.90;;;;;;6347630;22;20035;-89
2024/02/11 10:48:01;;;;;;;48.58;17.38;;;6.20;99.90;;;;;;6348832;22;20077;-89
2024/02/11 10:50:28;;;;;;;50.92;16.80;;;6.20;99.90;;;;;;6348640;22;20002;-89
2024/02/11 10:52:57;;;;;;;49.08;18.27;;;6.20;99.90;;;;;;6347309;22;20009;-88
2024/02/11 10:55:26;;;;;;;50.33;16.73;;;6.20;99.90;;;;;;6346337;22;20097;-89
2024/02/11 10:57:53;;;;;;;54.88;19.65;;;6.20;99.90;;;;;;6347071;22;20034;-89
2024/02/11 11:00:24;;;;;;;61.67;19.55;;;6.20;99.90;;;;;;6346771;22;20338;-89
2024/02/11 11:03:06;;;;;;;52.55;17.60;;;6.30;99.90;;;;;;6345732;22;20452;-90
2024/02/11 11:05:42;;;;;;;48.13;17.42;;;6.30;99.90;;;;;;6347098;22;20002;-90
2024/02/11 11:08:10;;;;;;;51.15;16.60;;;6.30;99.90;;;;;;6347670;22;20006;-90
2024/02/11 11:10:37;;;;;;;59.63;18.52;;;6.30;99.90;;;;;;6354717;22;20002;-90
2024/02/11 11:13:02;;;;;;;57.55;17.88;;;6.30;99.90;;;;;;6355771;22;20460;-89
2024/02/11 11:15:33;;;;;;;52.33;17.60;;;6.30;99.90;;;;;;6355848;22;20018;-89
2024/02/11 11:18:03;;;;;;;54.58;17.92;;;6.30;99.90;;;;;;6350439;22;20333;-90
2024/02/11 11:20:33;;;;;;;56.58;19.80;;;6.20;99.90;;;;;;6346572;22;20002;-90
2024/02/11 11:23:00;;;;;;;58.13;18.60;;;6.20;99.90;;;;;;6341087;22;20019;-90
2024/02/11 11:25:34;;;;;;;54.00;16.42;;;6.30;99.90;;;;;;6345579;22;20085;-91
2024/02/11 11:28:32;;;;;;;47.33;17.80;;;6.30;99.90;;;;;;6345097;22;20026;-90
2024/02/11 11:30:58;;;;;;;58.97;18.15;;;6.30;99.90;;;;;;6369743;22;20375;-91
2024/02/11 11:33:27;;;;;;;43.92;15.65;;;6.30;99.90;;;;;;6344590;22;20024;-91
2024/02/11 11:35:59;;;;;;;44.85;16.08;;;6.30;99.90;;;;;;6344477;22;20151;-92
2024/02/11 11:38:27;;;;;;;42.53;16.10;;;6.30;99.90;;;;;;6344833;22;20025;-91
2024/02/11 11:40:56;;;;;;;34.92;14.65;;;6.30;99.90;;;;;;6344819;22;20002;-91
2024/02/11 11:43:24;;;;;;;35.00;13.98;;;6.30;99.90;;;;;;6343954;22;20018;-91
2024/02/11 11:46:03;;;;;;;39.55;14.40;;;6.40;99.90;;;;;;6345096;22;20384;-90
2024/02/11 11:48:29;;;;;;;28.77;11.57;;;6.40;99.90;;;;;;6344344;22;20085;-91
2024/02/11 11:51:00;;;;;;;30.45;13.90;;;6.50;99.90;;;;;;6344704;22;20045;-91
2024/02/11 11:53:27;;;;;;;30.20;12.32;;;6.50;99.90;;;;;;6347017;22;20003;-91
2024/02/11 11:55:56;;;;;;;25.70;10.68;;;6.50;99.90;;;;;;6343682;22;20002;-92
2024/02/11 11:58:26;;;;;;;26.55;11.02;;;6.50;99.90;;;;;;6344522;22;20016;-91
2024/02/11 12:00:59;;;;;;;27.42;9.75;;;6.50;99.90;;;;;;6372055;22;19999;-91
2024/02/11 12:03:26;;;;;;;29.77;13.13;;;6.50;99.90;;;;;;6344405;22;20093;-91
2024/02/11 12:05:53;;;;;;;28.73;10.93;;;6.60;99.90;;;;;;6344508;22;20452;-91
2024/02/11 12:08:19;;;;;;;34.15;12.32;;;6.70;99.90;;;;;;6343902;22;20006;-91
2024/02/11 12:11:01;;;;;;;33.55;11.50;;;7.00;99.90;;;;;;6344260;22;19998;-91
2024/02/11 12:13:32;;;;;;;34.30;13.55;;;7.30;99.90;;;;;;6343621;22;20001;-91
2024/02/11 12:15:59;;;;;;;36.65;13.65;;;7.50;99.90;;;;;;6343084;22;20346;-91
2024/02/11 12:18:26;;;;;;;33.13;13.68;;;7.70;99.90;;;;;;6343599;22;20081;-91
2024/02/11 12:20:55;;;;;;;32.00;12.63;;;7.70;99.90;;;;;;6343115;22;20071;-92
2024/02/11 12:23:23;;;;;;;35.95;13.85;;;7.70;99.90;;;;;;6344306;22;20770;-91
2024/02/11 12:25:59;;;;;;;36.70;14.90;;;7.70;99.90;;;;;;6343338;22;20033;-92
2024/02/11 12:28:26;;;;;;;37.20;13.68;;;7.80;99.90;;;;;;6343107;22;19998;-92
2024/02/11 12:31:04;;;;;;;39.25;16.33;;;7.80;99.90;;;;;;6342661;22;20007;-93
2024/02/11 12:33:30;;;;;;;37.95;15.65;;;7.80;99.90;;;;;;6342409;22;20014;-92
2024/02/11 12:35:55;;;;;;;40.30;16.13;;;7.90;99.90;;;;;;6342919;22;20033;-92
2024/02/11 12:38:21;;;;;;;41.53;15.82;;;7.90;99.90;;;;;;6343289;22;20002;-92
2024/02/11 12:40:47;;;;;;;40.75;14.95;;;7.90;99.90;;;;;;6342850;22;20057;-91
2024/02/11 12:43:13;;;;;;;39.42;16.83;;;8.00;99.90;;;;;;6342856;22;20002;-91